Terminal Aerodrome Forecast
Issued by NWS

Home | Current Version | Previous Version | Text Only | Print | Product List | Glossary On
Versions: 1 2 3 4 5 6 7 8 9 10 11 12 13 14 15 16 17
000
FTUS43 KMPX 181600 AAA
TAFRNH
TAF AMD
KRNH 181602Z 1816/1912 36005KT P6SM FEW025
     FM182200 18004KT P6SM FEW250
     FM190900 16004KT P6SM BKN120=

USA.gov is the U.S. government's official web portal to all federal, state and local government web resources and services.